x

Destruction Island, Wa (desw1) Weather Station

12:00 - Fri 24th Feb 2017 All times are PST. -8 hours from GMT.

  • Wind
    18mph, 21mph gusts
  • Ar Temp 40°f
  • Sea Pressure 1020.6mb
  • Destruction Island, Wa
  • Destruction Island, Wa

More Historic Weather Station data

Upgrade to MSW Pro to gain access to the past 30 days of data for over 8000 Wavebouys and Weather Stations around the globe.

Join Pro

Comparision Forecast

View Surf forecast
   
Sex 02/24 12:00 18 21 mph 1020.6mb 40f
11:00 20 23 mph 1020.3mb 39f
10:00 20 21 mph 1019.9mb 37f
9:00 23 25 mph 1019.3mb 37f
8:00 21 24 mph 1019.2mb 37f
7:00 18 22 mph 1019.2mb 36f
6:00 17 20 mph 1019.3mb 36f
5:00 17 21 mph 1019.6mb 35f
4:00 14 16 mph 1020mb 36f
3:00 21 22 mph 1019.9mb 37f
2:00 18 21 mph 1020.4mb 38f
1:00 18 22 mph 1020.7mb 38f
12:00 11
mph
1021.1mb 40f
Qui 02/23 11:00 7
mph
1021.8mb 40f
10:00 6 7 mph 1022.2mb 39f
9:00 10 14 mph 1022.3mb 41f
8:00 9 13 mph 1022.3mb 42f
7:00 10 11 mph 1022.8mb 42f
6:00 11 13 mph 1022.9mb 42f
5:00 7 8 mph 1023.2mb 43f
4:00 3 5 mph 1023.2mb 43f
3:00 8 9 mph 1023.7mb 44f
2:00 8 9 mph 1023.9mb 43f
1:00 9 11 mph 1024.4mb 44f
12:00 8 9 mph 1025.1mb 42f
11:00 7 9 mph 1025mb 41f
10:00 3 6 mph 1024.9mb 41f
9:00 5
mph
1024.8mb 38f
8:00 5 6 mph 1024.6mb 37f
7:00 9 11 mph 1023.9mb 35f
6:00 8
mph
1023.9mb 35f
5:00 6 7 mph 1023.8mb 37f
4:00 8 10 mph 1023.7mb 36f
3:00 10
mph
1023.7mb 35f
2:00 9 10 mph 1023.7mb 36f
Qua 02/22 2:00 8 9 mph 1022.3mb 38f
1:00  -  2 mph 1022mb 42f
12:00 6 7 mph 1021.7mb 39f
Ter 02/21 11:00 9 10 mph 1021.3mb 43f
10:00 14 17 mph 1020.9mb 44f
9:00 20 22 mph 1020.5mb 44f
8:00 10 14 mph 1020mb 44f
7:00 22 23 mph 1019.7mb 44f
6:00 16 17 mph 1018.9mb 45f
5:00 23 25 mph 1018.2mb 44f
4:00 16 17 mph 1017.8mb 46f
3:00 16 18 mph 1017mb 46f
2:00 21 23 mph 1015.8mb 46f
1:00 22 24 mph 1015.4mb 45f
12:00 25 26 mph 1015.1mb 45f
11:00 22 23 mph 1014.1mb 45f
10:00 15 17 mph 1013mb 43f
9:00 15 16 mph 1011.5mb 42f
8:00 17 18 mph 1010.3mb 42f
7:00 21 22 mph 1009mb 42f
6:00 18 21 mph 1008mb 42f
5:00 11 13 mph 1007.2mb 42f
4:00 14 15 mph 1006.9mb 42f
3:00 14 15 mph 1006.8mb 42f
2:00 9 10 mph 1007mb 43f
1:00 8 9 mph 1006.7mb 43f
12:00 11 13 mph 1006.4mb 43f
Seg 02/20 11:00 13 14 mph 1006.2mb 43f
10:00 5 6 mph 1006.9mb 44f